Time;durP1;ratioP1;P1;durP2;ratioP2;P2;SDS_P1;SDS_P2;PMS_P1;PMS_P2;Temp;Humidity;BMP_temperature;BMP_pressure;BME280_temperature;BME280_humidity;BME280_pressure;Samples;Min_cycle;Max_cycle;Signal;HPM_P1;HPM_P2
2022/01/06 00:00:08;;;;;;;17.88;2.25;;;4.60;99.90;;;;;;5072910;28;20028;-78
2022/01/06 00:02:38;;;;;;;12.80;2.42;;;4.60;99.90;;;;;;5072093;28;20036;-78
2022/01/06 00:05:05;;;;;;;13.65;2.30;;;4.50;99.90;;;;;;5072355;28;20046;-77
2022/01/06 00:07:31;;;;;;;20.25;3.05;;;4.50;99.90;;;;;;5072353;28;20024;-76
2022/01/06 00:09:57;;;;;;;16.63;3.50;;;4.50;99.90;;;;;;5072706;28;20043;-77
2022/01/06 00:12:30;;;;;;;21.23;4.10;;;4.50;99.90;;;;;;5072625;28;20024;-78
2022/01/06 00:15:07;;;;;;;25.60;3.30;;;4.50;99.90;;;;;;5071397;28;20025;-77
2022/01/06 00:25:34;;;;;;;19.83;3.45;;;4.40;99.90;;;;;;5071293;28;20068;-78
2022/01/06 00:27:59;;;;;;;13.05;3.40;;;4.70;99.90;;;;;;5072409;28;20067;-78
2022/01/06 00:30:25;;;;;;;15.90;3.20;;;4.70;99.90;;;;;;5071179;28;20078;-78
2022/01/06 00:32:51;;;;;;;18.55;3.92;;;4.50;99.90;;;;;;5072063;28;20111;-78
2022/01/06 00:35:17;;;;;;;13.68;2.70;;;4.30;99.90;;;;;;5072496;28;20074;-78
2022/01/06 00:37:43;;;;;;;22.85;3.40;;;4.20;99.90;;;;;;5071193;28;20063;-77
2022/01/06 00:40:09;;;;;;;19.25;3.80;;;4.20;99.90;;;;;;5072426;28;20028;-79
2022/01/06 00:42:35;;;;;;;19.90;3.08;;;4.20;99.90;;;;;;5071066;28;20028;-76
2022/01/06 00:45:01;;;;;;;13.18;2.85;;;4.30;99.90;;;;;;5072210;28;20374;-77
2022/01/06 00:47:26;;;;;;;18.92;3.45;;;4.40;99.90;;;;;;5072126;28;20028;-77
2022/01/06 00:49:52;;;;;;;21.55;2.95;;;4.60;99.90;;;;;;5072406;28;20035;-78
2022/01/06 00:52:18;;;;;;;21.08;3.42;;;5.00;99.90;;;;;;5072347;28;20074;-78
2022/01/06 00:54:43;;;;;;;21.25;3.05;;;5.00;99.90;;;;;;5072288;28;20036;-77
2022/01/06 00:57:09;;;;;;;22.27;3.75;;;4.80;99.90;;;;;;5072236;28;20070;-76
2022/01/06 00:59:35;;;;;;;23.25;4.13;;;4.70;99.90;;;;;;5072141;28;20037;-78
2022/01/06 01:02:00;;;;;;;26.73;4.13;;;4.70;99.90;;;;;;5071964;28;20055;-76
2022/01/06 01:04:26;;;;;;;23.17;5.35;;;4.70;99.90;;;;;;5072098;28;20032;-78
2022/01/06 01:06:52;;;;;;;19.23;3.60;;;4.60;99.90;;;;;;5072223;28;20432;-78
2022/01/06 01:09:17;;;;;;;16.65;3.08;;;4.60;99.90;;;;;;5071831;28;20100;-78
2022/01/06 01:11:43;;;;;;;26.23;4.25;;;4.50;99.90;;;;;;5072180;28;20025;-77
2022/01/06 01:14:25;;;;;;;26.58;3.45;;;4.60;99.90;;;;;;5072197;28;20036;-77
2022/01/06 01:16:56;;;;;;;19.58;2.83;;;4.50;99.90;;;;;;5075453;28;20049;-78
2022/01/06 01:19:23;;;;;;;25.45;3.67;;;4.50;99.90;;;;;;5075247;28;20056;-78
2022/01/06 01:21:49;;;;;;;22.65;4.07;;;4.60;99.90;;;;;;5074313;28;20033;-78
2022/01/06 01:24:15;;;;;;;25.73;3.35;;;4.70;99.90;;;;;;5075362;28;20086;-79
2022/01/06 01:26:41;;;;;;;32.08;4.10;;;4.80;99.90;;;;;;5075415;28;20082;-77
2022/01/06 01:29:13;;;;;;;24.23;3.58;;;4.70;99.90;;;;;;5073913;28;20426;-78
2022/01/06 01:31:44;;;;;;;27.60;4.70;;;4.90;99.90;;;;;;5075251;28;20124;-79
2022/01/06 01:34:12;;;;;;;28.13;3.55;;;4.80;99.90;;;;;;5075319;28;20067;-78
2022/01/06 01:36:38;;;;;;;22.02;3.80;;;4.80;99.90;;;;;;5075690;28;20416;-77
2022/01/06 01:39:05;;;;;;;19.48;3.80;;;4.70;99.90;;;;;;5074039;28;20020;-78
2022/01/06 01:41:32;;;;;;;25.58;3.67;;;4.80;99.90;;;;;;5075089;28;20024;-77
2022/01/06 01:43:58;;;;;;;23.92;3.92;;;4.70;99.90;;;;;;5074756;28;20473;-78
2022/01/06 01:46:29;;;;;;;23.70;4.72;;;4.70;99.90;;;;;;5074975;28;20381;-78
2022/01/06 01:51:34;;;;;;;23.85;3.17;;;4.70;99.90;;;;;;5074964;28;20112;-77
2022/01/06 01:54:00;;;;;;;26.15;3.10;;;4.60;99.90;;;;;;5073937;28;20545;-78
2022/01/06 01:56:26;;;;;;;22.52;3.70;;;4.70;99.90;;;;;;5073584;28;20021;-78
2022/01/06 01:58:52;;;;;;;26.15;3.17;;;4.70;99.90;;;;;;5073504;28;20448;-79
2022/01/06 02:01:17;;;;;;;23.30;3.63;;;4.60;99.90;;;;;;5074755;28;20431;-78
2022/01/06 02:03:43;;;;;;;24.00;3.38;;;4.50;99.90;;;;;;5074739;28;20021;-78
2022/01/06 02:06:09;;;;;;;22.15;3.40;;;4.50;99.90;;;;;;5073407;28;20090;-79
2022/01/06 02:08:34;;;;;;;17.88;2.67;;;4.40;99.90;;;;;;5073255;28;20067;-77
2022/01/06 02:11:00;;;;;;;21.67;3.60;;;4.40;99.90;;;;;;5074541;28;20025;-78
2022/01/06 02:13:29;;;;;;;17.35;2.88;;;4.50;99.90;;;;;;5074341;28;20376;-78
2022/01/06 02:15:56;;;;;;;19.42;2.70;;;4.40;99.90;;;;;;5074397;28;20039;-79
2022/01/06 02:18:22;;;;;;;21.63;3.03;;;4.40;99.90;;;;;;5074456;28;20469;-77
2022/01/06 02:20:47;;;;;;;18.98;2.83;;;4.40;99.90;;;;;;5074363;28;20029;-77
2022/01/06 02:23:13;;;;;;;25.00;3.90;;;4.40;99.90;;;;;;5072975;28;20025;-78
2022/01/06 02:25:39;;;;;;;16.30;3.13;;;4.40;99.90;;;;;;5073788;28;20421;-78
2022/01/06 02:28:05;;;;;;;20.30;4.03;;;4.40;99.90;;;;;;5072316;28;20182;-78
2022/01/06 02:30:33;;;;;;;19.42;3.20;;;4.40;99.90;;;;;;5074074;28;20056;-78
2022/01/06 02:33:01;;;;;;;24.70;3.72;;;4.40;99.90;;;;;;5074262;28;20123;-78
2022/01/06 02:35:28;;;;;;;17.13;2.63;;;4.50;99.90;;;;;;5073807;28;20021;-78
2022/01/06 02:37:54;;;;;;;27.50;3.05;;;4.50;99.90;;;;;;5074134;28;20063;-78
2022/01/06 02:40:26;;;;;;;23.77;3.20;;;4.40;99.90;;;;;;5074046;28;20025;-76
2022/01/06 02:42:55;;;;;;;12.48;2.90;;;4.50;99.90;;;;;;5072262;28;20029;-78
2022/01/06 02:45:23;;;;;;;16.65;2.97;;;4.50;99.90;;;;;;5073978;28;20120;-78
2022/01/06 02:47:49;;;;;;;20.85;3.33;;;4.50;99.90;;;;;;5073766;28;20051;-78
2022/01/06 02:50:17;;;;;;;21.67;3.40;;;4.60;99.90;;;;;;5074412;28;20465;-76
2022/01/06 02:52:42;;;;;;;22.60;3.50;;;4.50;99.90;;;;;;5073846;28;20019;-76
2022/01/06 02:55:10;;;;;;;26.85;2.80;;;4.50;99.90;;;;;;5073819;28;20024;-78
2022/01/06 02:57:36;;;;;;;25.83;3.33;;;4.50;99.90;;;;;;5071988;28;20419;-78
2022/01/06 03:00:16;;;;;;;27.42;2.85;;;4.60;99.90;;;;;;5073825;28;20028;-77
2022/01/06 03:02:43;;;;;;;17.10;2.78;;;4.50;99.90;;;;;;5073466;28;20063;-77
2022/01/06 03:05:10;;;;;;;16.70;3.13;;;4.50;99.90;;;;;;5073564;28;20098;-75
2022/01/06 03:07:36;;;;;;;15.40;3.03;;;4.50;99.90;;;;;;5073332;28;20069;-77
2022/01/06 03:10:05;;;;;;;17.23;3.15;;;4.50;99.90;;;;;;5073383;28;20473;-78
2022/01/06 03:12:39;;;;;;;15.35;3.42;;;4.50;99.90;;;;;;5073019;28;20070;-78
2022/01/06 03:15:10;;;;;;;21.20;3.30;;;4.60;99.90;;;;;;5073321;28;20028;-77
2022/01/06 03:17:38;;;;;;;24.73;4.20;;;4.60;99.90;;;;;;5073296;28;20027;-77
2022/01/06 03:20:05;;;;;;;15.95;2.83;;;4.50;99.90;;;;;;5073116;28;20278;-77
2022/01/06 03:22:31;;;;;;;22.77;3.17;;;4.50;99.90;;;;;;5073104;28;20033;-78
2022/01/06 03:24:57;;;;;;;14.05;2.58;;;4.40;99.90;;;;;;5073220;28;20025;-79
2022/01/06 03:27:24;;;;;;;20.42;2.95;;;4.40;99.90;;;;;;5054877;28;20049;-75
2022/01/06 03:29:50;;;;;;;25.42;3.55;;;4.40;99.90;;;;;;5073163;28;20050;-79
2022/01/06 03:32:17;;;;;;;24.83;3.38;;;4.40;99.90;;;;;;5072998;28;20115;-78
2022/01/06 03:34:44;;;;;;;20.45;3.22;;;4.40;99.90;;;;;;5073000;28;20025;-78
2022/01/06 03:37:10;;;;;;;12.98;2.30;;;4.40;99.90;;;;;;5072900;28;20039;-79
2022/01/06 03:39:36;;;;;;;15.00;3.05;;;4.40;99.90;;;;;;5058306;28;20025;-78
2022/01/06 03:42:02;;;;;;;22.08;3.95;;;4.50;99.90;;;;;;5052839;28;20086;-78
2022/01/06 03:44:28;;;;;;;16.40;3.28;;;4.60;99.90;;;;;;5052806;28;20045;-79
2022/01/06 03:46:54;;;;;;;20.85;3.95;;;4.60;99.90;;;;;;5052831;28;20363;-79
2022/01/06 03:49:20;;;;;;;20.83;3.35;;;4.70;99.90;;;;;;5052863;28;20450;-79
2022/01/06 03:51:46;;;;;;;23.17;3.42;;;4.90;99.90;;;;;;5052778;28;20070;-79
2022/01/06 03:54:12;;;;;;;22.27;4.22;;;5.00;99.90;;;;;;5052437;28;20108;-78
2022/01/06 03:56:38;;;;;;;13.70;3.47;;;5.00;99.90;;;;;;5052882;28;20027;-78
2022/01/06 03:59:04;;;;;;;19.67;2.97;;;5.10;99.90;;;;;;5052795;28;20060;-78
2022/01/06 04:01:31;;;;;;;11.90;2.63;;;5.10;99.90;;;;;;5052765;28;20078;-78
2022/01/06 04:03:57;;;;;;;17.55;3.08;;;5.00;99.90;;;;;;5052658;28;20432;-78
2022/01/06 04:06:22;;;;;;;20.52;3.30;;;5.00;99.90;;;;;;5052663;28;20029;-78
2022/01/06 04:08:48;;;;;;;27.98;3.95;;;4.90;99.90;;;;;;5055934;28;20509;-78
2022/01/06 04:11:14;;;;;;;23.80;3.20;;;4.80;99.90;;;;;;5072696;28;20035;-78
2022/01/06 04:13:40;;;;;;;18.95;3.30;;;4.50;99.90;;;;;;5071497;28;20040;-77
2022/01/06 04:16:11;;;;;;;19.13;3.63;;;4.40;99.90;;;;;;5072759;28;20100;-78
2022/01/06 04:18:37;;;;;;;25.50;3.93;;;4.20;99.90;;;;;;5072329;28;20127;-78
2022/01/06 04:21:03;;;;;;;22.77;4.28;;;4.10;99.90;;;;;;5072622;28;20119;-78
2022/01/06 04:23:29;;;;;;;26.10;3.80;;;4.10;99.90;;;;;;5072185;28;20124;-78
2022/01/06 04:25:55;;;;;;;20.42;3.92;;;4.10;99.90;;;;;;5072453;28;20056;-78
2022/01/06 04:28:20;;;;;;;27.05;3.33;;;4.10;99.90;;;;;;5072514;28;20104;-79
2022/01/06 04:30:46;;;;;;;25.20;4.45;;;4.00;99.90;;;;;;5072442;28;20036;-79
2022/01/06 04:33:12;;;;;;;28.27;4.45;;;4.00;99.90;;;;;;5072362;28;20033;-78
2022/01/06 04:35:37;;;;;;;22.38;3.78;;;4.00;99.90;;;;;;5072533;28;20107;-78
2022/01/06 04:38:03;;;;;;;21.27;3.28;;;4.00;99.90;;;;;;5072336;28;20021;-78
2022/01/06 04:40:29;;;;;;;21.20;3.45;;;4.10;99.90;;;;;;5071128;28;20130;-77
2022/01/06 04:42:54;;;;;;;24.20;3.58;;;4.20;99.90;;;;;;5054414;28;20021;-77
2022/01/06 04:45:20;;;;;;;29.58;4.72;;;4.10;99.90;;;;;;5072267;28;20028;-78
2022/01/06 04:47:46;;;;;;;16.40;3.13;;;4.00;99.90;;;;;;5072346;28;20024;-78
2022/01/06 04:50:11;;;;;;;22.05;3.67;;;4.00;99.90;;;;;;5074061;28;20036;-76
2022/01/06 04:52:37;;;;;;;24.98;4.03;;;4.00;99.90;;;;;;5075932;28;20433;-78
2022/01/06 04:55:04;;;;;;;27.85;3.92;;;3.90;99.90;;;;;;5076011;28;20021;-78
2022/01/06 04:57:30;;;;;;;23.40;3.80;;;3.80;99.90;;;;;;5075960;28;20044;-78
2022/01/06 04:59:55;;;;;;;21.05;3.13;;;3.70;99.90;;;;;;5074412;28;20039;-78
2022/01/06 05:02:21;;;;;;;31.02;4.15;;;3.80;99.90;;;;;;5057764;28;20024;-78
2022/01/06 05:04:47;;;;;;;26.88;4.70;;;3.70;99.90;;;;;;5075603;28;20443;-78
2022/01/06 05:07:12;;;;;;;32.83;4.85;;;3.70;99.90;;;;;;5075597;28;20027;-78
2022/01/06 05:09:38;;;;;;;33.03;4.13;;;3.90;99.90;;;;;;5074112;28;20036;-78
2022/01/06 05:12:04;;;;;;;17.00;3.38;;;3.90;99.90;;;;;;5075769;28;20036;-79
2022/01/06 05:14:30;;;;;;;33.13;5.38;;;3.80;99.90;;;;;;5074515;28;20020;-77
2022/01/06 05:16:56;;;;;;;27.45;4.25;;;3.70;99.90;;;;;;5075710;28;20033;-78
2022/01/06 05:19:23;;;;;;;20.95;3.88;;;3.70;99.90;;;;;;5075370;28;20028;-78
2022/01/06 05:21:51;;;;;;;18.98;3.97;;;3.70;99.90;;;;;;5073872;28;20507;-78
2022/01/06 05:24:17;;;;;;;20.65;4.22;;;3.60;99.90;;;;;;5075314;28;20040;-78
2022/01/06 05:26:43;;;;;;;15.32;4.18;;;3.70;99.90;;;;;;5075547;28;20468;-79
2022/01/06 05:29:10;;;;;;;25.90;4.38;;;3.60;99.90;;;;;;5075458;28;20107;-78
2022/01/06 05:31:37;;;;;;;19.52;4.80;;;3.50;99.90;;;;;;5075430;28;20105;-78
2022/01/06 05:34:03;;;;;;;21.88;3.83;;;3.50;99.90;;;;;;5074106;28;20106;-78
2022/01/06 05:36:29;;;;;;;22.83;3.72;;;3.50;99.90;;;;;;5075095;28;20378;-78
2022/01/06 05:38:55;;;;;;;33.03;4.57;;;3.50;99.90;;;;;;5075287;28;20086;-78
2022/01/06 05:41:21;;;;;;;22.70;4.93;;;3.40;99.90;;;;;;5075123;28;20032;-78
2022/01/06 05:43:48;;;;;;;20.65;4.43;;;3.30;99.90;;;;;;5075261;28;20036;-78
2022/01/06 05:46:13;;;;;;;23.20;4.25;;;3.20;99.90;;;;;;5075151;28;20111;-78
2022/01/06 05:48:39;;;;;;;21.13;4.15;;;3.20;99.90;;;;;;5073727;28;20107;-78
2022/01/06 05:51:05;;;;;;;20.70;4.65;;;3.30;99.90;;;;;;5073470;28;20442;-78
2022/01/06 05:53:30;;;;;;;21.73;4.38;;;3.30;99.90;;;;;;5075074;28;20081;-78
2022/01/06 05:55:56;;;;;;;31.05;4.00;;;3.40;99.90;;;;;;5074834;28;20032;-78
2022/01/06 05:58:22;;;;;;;22.00;4.85;;;3.30;99.90;;;;;;5074951;28;20055;-78
2022/01/06 06:00:50;;;;;;;26.08;5.38;;;3.20;99.90;;;;;;5073904;28;20036;-78
2022/01/06 06:03:15;;;;;;;16.63;4.70;;;3.20;99.90;;;;;;5074572;28;20039;-78
2022/01/06 06:05:42;;;;;;;29.85;5.47;;;3.10;99.90;;;;;;5073075;28;20036;-78
2022/01/06 06:08:09;;;;;;;23.95;5.68;;;3.00;99.90;;;;;;5074834;28;20469;-78
2022/01/06 06:10:35;;;;;;;22.83;5.90;;;3.10;99.90;;;;;;5074429;28;20025;-78
2022/01/06 06:13:01;;;;;;;28.67;6.00;;;3.00;99.90;;;;;;5074625;28;20016;-78
2022/01/06 06:15:27;;;;;;;19.98;4.50;;;3.00;99.90;;;;;;5074649;28;20043;-78
2022/01/06 06:17:52;;;;;;;29.08;4.40;;;2.90;99.90;;;;;;5074471;28;20361;-77
2022/01/06 06:20:18;;;;;;;23.05;4.00;;;2.90;99.90;;;;;;5073913;28;20044;-77
2022/01/06 06:22:44;;;;;;;19.63;4.60;;;3.00;99.90;;;;;;5073233;28;20033;-77
2022/01/06 06:25:10;;;;;;;31.67;5.03;;;3.00;99.90;;;;;;5073014;28;20049;-78
2022/01/06 06:27:36;;;;;;;20.00;4.03;;;3.00;99.90;;;;;;5074198;28;20070;-77
2022/01/06 06:30:02;;;;;;;17.83;3.60;;;3.00;99.90;;;;;;5072947;28;20476;-77
2022/01/06 06:32:30;;;;;;;19.00;3.80;;;3.00;99.90;;;;;;5073030;28;20025;-76
2022/01/06 06:34:56;;;;;;;15.82;3.47;;;3.10;99.90;;;;;;5073944;28;20492;-77
2022/01/06 06:37:21;;;;;;;22.50;4.60;;;3.10;99.90;;;;;;5074005;28;20024;-77
2022/01/06 06:39:47;;;;;;;17.27;4.07;;;3.10;99.90;;;;;;5072804;28;20031;-77
2022/01/06 06:42:13;;;;;;;15.52;3.03;;;3.10;99.90;;;;;;5073970;28;20477;-77
2022/01/06 06:44:38;;;;;;;21.60;3.63;;;3.10;99.90;;;;;;5049765;28;20492;-76
2022/01/06 06:47:04;;;;;;;19.13;3.85;;;3.10;99.90;;;;;;5056601;28;20366;-77
2022/01/06 06:49:30;;;;;;;21.45;4.00;;;3.10;99.90;;;;;;5054128;28;20028;-76
2022/01/06 06:51:55;;;;;;;26.15;5.13;;;3.10;99.90;;;;;;5052448;28;20025;-77
2022/01/06 06:54:21;;;;;;;13.70;3.65;;;3.10;99.90;;;;;;5052486;28;20032;-77
2022/01/06 06:56:47;;;;;;;27.33;4.20;;;3.10;99.90;;;;;;5053583;28;20029;-77
2022/01/06 06:59:13;;;;;;;20.63;3.55;;;3.10;99.90;;;;;;5053834;28;20037;-77
2022/01/06 07:01:38;;;;;;;22.80;3.78;;;3.10;99.90;;;;;;5052117;28;20032;-76
2022/01/06 07:04:04;;;;;;;13.65;2.75;;;3.10;99.90;;;;;;5051959;28;20044;-77
2022/01/06 07:06:30;;;;;;;25.40;5.07;;;3.10;99.90;;;;;;5052376;28;20405;-78
2022/01/06 07:08:55;;;;;;;24.83;3.88;;;3.10;99.90;;;;;;5057929;28;20029;-79
2022/01/06 07:11:24;;;;;;;24.92;3.92;;;3.10;99.90;;;;;;5073331;28;20025;-79
2022/01/06 07:13:50;;;;;;;21.13;4.90;;;3.10;99.90;;;;;;5073087;28;20568;-78
2022/01/06 07:16:15;;;;;;;21.00;3.80;;;3.10;99.90;;;;;;5073244;28;20124;-78
2022/01/06 07:18:41;;;;;;;20.40;3.55;;;3.10;99.90;;;;;;5071698;28;20024;-79
2022/01/06 07:21:07;;;;;;;17.45;2.88;;;3.20;99.90;;;;;;5073156;28;20032;-78
2022/01/06 07:23:33;;;;;;;18.80;3.50;;;3.10;99.90;;;;;;5073377;28;20075;-78
2022/01/06 07:25:58;;;;;;;18.77;3.30;;;3.10;99.90;;;;;;5073186;28;20024;-78
2022/01/06 07:28:24;;;;;;;23.38;4.50;;;3.10;99.90;;;;;;5073130;28;20513;-78
2022/01/06 07:30:50;;;;;;;29.20;4.18;;;3.20;99.90;;;;;;5073068;28;20538;-78
2022/01/06 07:33:15;;;;;;;22.85;4.43;;;3.20;99.90;;;;;;5072787;28;20063;-77
2022/01/06 07:35:41;;;;;;;25.13;5.18;;;3.10;99.90;;;;;;5073028;28;20054;-77
2022/01/06 07:38:07;;;;;;;18.85;4.18;;;3.20;99.90;;;;;;5072950;28;20028;-78
2022/01/06 07:40:32;;;;;;;15.18;4.35;;;3.20;99.90;;;;;;5073155;28;20492;-78
2022/01/06 07:42:58;;;;;;;20.58;3.67;;;3.10;99.90;;;;;;5072855;28;20381;-77
2022/01/06 07:45:24;;;;;;;37.17;6.70;;;3.10;99.90;;;;;;5072938;28;20039;-78
2022/01/06 07:47:58;;;;;;;23.20;4.38;;;3.10;99.90;;;;;;5072350;28;20111;-77
2022/01/06 07:50:27;;;;;;;26.60;4.60;;;3.00;99.90;;;;;;5073463;28;20032;-78
2022/01/06 07:52:53;;;;;;;23.05;4.88;;;3.00;99.90;;;;;;5071272;28;20548;-78
2022/01/06 07:55:19;;;;;;;29.90;5.38;;;3.10;99.90;;;;;;5072881;28;20111;-78
2022/01/06 07:57:45;;;;;;;24.70;6.00;;;3.00;99.90;;;;;;5071435;28;20036;-77
2022/01/06 08:00:11;;;;;;;26.33;5.47;;;3.00;99.90;;;;;;5072837;28;20016;-78
2022/01/06 08:02:39;;;;;;;22.17;5.35;;;3.10;99.90;;;;;;5072404;28;20032;-79
2022/01/06 08:05:09;;;;;;;23.30;5.13;;;3.10;99.90;;;;;;5072589;28;20040;-78
2022/01/06 08:07:36;;;;;;;23.55;4.93;;;3.10;99.90;;;;;;5072739;28;20099;-78
2022/01/06 08:10:02;;;;;;;20.40;5.22;;;3.20;99.90;;;;;;5072611;28;20150;-78
2022/01/06 08:12:27;;;;;;;29.38;5.03;;;3.20;99.90;;;;;;5072375;28;20033;-79
2022/01/06 08:14:53;;;;;;;22.42;4.95;;;3.30;99.90;;;;;;5072714;28;20103;-79
2022/01/06 08:17:19;;;;;;;34.58;6.35;;;3.40;99.90;;;;;;5072364;28;20358;-78
2022/01/06 08:19:45;;;;;;;29.38;6.00;;;3.50;99.90;;;;;;5072191;28;20043;-78
2022/01/06 08:22:10;;;;;;;28.45;5.78;;;3.50;99.90;;;;;;5072712;28;20392;-77
2022/01/06 08:24:36;;;;;;;29.10;6.68;;;3.50;99.90;;;;;;5073730;28;20045;-79
2022/01/06 08:27:08;;;;;;;29.88;5.88;;;3.70;99.90;;;;;;5076623;28;20035;-78
2022/01/06 08:29:35;;;;;;;23.08;6.60;;;3.90;99.90;;;;;;5076088;28;20033;-79
2022/01/06 08:32:01;;;;;;;26.48;6.05;;;4.10;99.90;;;;;;5076400;28;20013;-79
2022/01/06 08:34:27;;;;;;;30.02;7.00;;;4.10;99.90;;;;;;5076314;28;20443;-78
2022/01/06 08:36:53;;;;;;;23.67;7.75;;;4.10;99.90;;;;;;5076388;28;20548;-79
2022/01/06 08:39:20;;;;;;;24.48;7.80;;;4.30;99.90;;;;;;5076481;28;20032;-78
2022/01/06 08:41:47;;;;;;;21.00;5.93;;;4.40;99.90;;;;;;5076242;28;20035;-78
2022/01/06 08:44:13;;;;;;;27.08;6.68;;;4.70;99.90;;;;;;5075726;28;20048;-78
2022/01/06 08:46:39;;;;;;;33.70;9.07;;;4.80;99.90;;;;;;5076277;28;20029;-79
2022/01/06 08:49:06;;;;;;;19.83;5.53;;;4.90;99.90;;;;;;5075927;28;20040;-80
2022/01/06 08:51:32;;;;;;;22.30;5.68;;;4.80;99.90;;;;;;5076108;28;20162;-77
2022/01/06 08:53:58;;;;;;;29.40;5.18;;;4.80;99.90;;;;;;5076060;28;20032;-78
2022/01/06 08:56:24;;;;;;;28.48;6.07;;;4.90;99.90;;;;;;5076004;28;20024;-78
2022/01/06 08:58:50;;;;;;;20.88;6.95;;;4.90;99.90;;;;;;5074321;28;20103;-77
2022/01/06 09:01:16;;;;;;;23.58;6.63;;;5.00;99.90;;;;;;5075961;28;20036;-78
2022/01/06 09:03:42;;;;;;;23.35;5.95;;;4.80;99.90;;;;;;5074471;28;20553;-78
2022/01/06 09:06:07;;;;;;;27.50;5.65;;;4.70;99.90;;;;;;5075939;28;20044;-78
2022/01/06 09:08:33;;;;;;;18.42;5.70;;;4.70;99.90;;;;;;5075689;28;20025;-78
2022/01/06 09:10:58;;;;;;;30.67;7.68;;;4.90;99.90;;;;;;5076809;28;20028;-78
2022/01/06 09:13:25;;;;;;;25.70;6.05;;;4.80;99.90;;;;;;5075895;28;20526;-77
2022/01/06 09:15:51;;;;;;;21.52;6.43;;;4.80;99.90;;;;;;5075750;28;20500;-78
2022/01/06 09:18:17;;;;;;;22.98;7.00;;;5.10;99.90;;;;;;5076476;28;20034;-80
2022/01/06 09:20:42;;;;;;;20.02;5.55;;;5.30;99.90;;;;;;5075134;28;20033;-80
2022/01/06 09:23:08;;;;;;;27.80;6.38;;;5.60;99.90;;;;;;5075903;28;20525;-80
2022/01/06 09:25:34;;;;;;;26.48;6.97;;;5.80;99.90;;;;;;5075413;28;20074;-79
2022/01/06 09:28:00;;;;;;;15.45;5.05;;;5.70;99.90;;;;;;5075049;28;20036;-79
2022/01/06 09:30:25;;;;;;;17.90;5.00;;;5.60;99.90;;;;;;5075338;28;20067;-80
2022/01/06 09:32:53;;;;;;;17.45;7.43;;;6.00;99.90;;;;;;5075605;28;20016;-78
2022/01/06 09:35:20;;;;;;;22.23;6.28;;;6.00;99.90;;;;;;5074976;28;20481;-77
2022/01/06 09:37:46;;;;;;;19.15;6.13;;;6.00;99.90;;;;;;5075399;28;20036;-77
2022/01/06 09:40:12;;;;;;;22.73;6.85;;;6.00;99.90;;;;;;5075087;28;20496;-78
2022/01/06 09:42:40;;;;;;;29.05;7.03;;;6.20;99.90;;;;;;5073672;28;20028;-80
2022/01/06 09:45:06;;;;;;;23.02;6.05;;;6.50;99.90;;;;;;5073757;28;20378;-80
2022/01/06 09:47:33;;;;;;;19.88;5.63;;;6.70;99.90;;;;;;5075247;28;20031;-79
2022/01/06 09:49:59;;;;;;;27.10;5.45;;;6.70;99.90;;;;;;5074776;28;20036;-79
2022/01/06 09:52:25;;;;;;;26.73;5.70;;;6.60;99.90;;;;;;5073712;28;20054;-80
2022/01/06 09:54:51;;;;;;;21.98;5.80;;;6.40;99.90;;;;;;5074979;28;20024;-80
2022/01/06 09:57:17;;;;;;;21.95;5.53;;;6.80;99.90;;;;;;5074762;28;20020;-80
2022/01/06 09:59:44;;;;;;;21.70;5.40;;;7.20;99.90;;;;;;5074631;28;20099;-79
2022/01/06 10:02:16;;;;;;;28.52;5.65;;;6.60;99.90;;;;;;5073593;28;20059;-80
2022/01/06 10:04:56;;;;;;;25.33;6.88;;;6.40;99.90;;;;;;5074669;28;20442;-81
2022/01/06 10:07:22;;;;;;;34.35;6.28;;;6.90;99.90;;;;;;5073311;28;20028;-80
2022/01/06 10:09:50;;;;;;;15.52;5.55;;;7.20;99.90;;;;;;5074447;28;20021;-81
2022/01/06 10:12:16;;;;;;;17.98;5.55;;;7.60;99.90;;;;;;5074219;28;20477;-81
2022/01/06 10:14:47;;;;;;;25.70;6.57;;;7.40;99.90;;;;;;5073377;28;20048;-81
2022/01/06 10:17:15;;;;;;;27.30;6.38;;;7.10;99.90;;;;;;5074573;28;20028;-80
2022/01/06 10:19:42;;;;;;;23.33;5.78;;;7.30;99.90;;;;;;5074377;28;20028;-80
2022/01/06 10:22:19;;;;;;;33.08;5.57;;;7.30;99.90;;;;;;5072922;28;20024;-80
2022/01/06 10:24:47;;;;;;;20.48;5.55;;;7.70;99.90;;;;;;5074456;28;20542;-80
2022/01/06 10:27:16;;;;;;;21.77;6.60;;;8.10;99.90;;;;;;5055947;28;20016;-80
2022/01/06 10:29:48;;;;;;;32.83;6.30;;;7.90;99.90;;;;;;5074290;28;20028;-80
2022/01/06 10:32:16;;;;;;;44.38;7.75;;;7.40;99.90;;;;;;5074066;28;20037;-81
2022/01/06 10:34:53;;;;;;;34.47;7.22;;;7.40;99.90;;;;;;5074288;28;20512;-81
2022/01/06 10:37:26;;;;;;;32.13;7.43;;;7.30;99.90;;;;;;5074217;28;20032;-80
2022/01/06 10:40:05;;;;;;;36.30;7.90;;;7.50;99.90;;;;;;5073909;28;20033;-81
2022/01/06 10:42:34;;;;;;;29.38;6.88;;;7.80;99.90;;;;;;5073957;28;20024;-81
2022/01/06 10:45:07;;;;;;;17.80;4.68;;;7.80;99.90;;;;;;5073949;28;20099;-79
2022/01/06 10:47:39;;;;;;;22.23;6.07;;;7.40;99.90;;;;;;5073026;28;20620;-81
2022/01/06 10:50:13;;;;;;;31.38;5.95;;;7.40;99.90;;;;;;5074243;28;20043;-81
2022/01/06 10:52:41;;;;;;;20.33;5.45;;;8.00;99.90;;;;;;5073802;28;20384;-82
2022/01/06 10:55:17;;;;;;;32.17;6.25;;;8.20;99.90;;;;;;5073554;28;20012;-80
2022/01/06 10:58:11;;;;;;;25.38;5.47;;;9.10;99.90;;;;;;5073391;28;20578;-79
2022/01/06 11:00:40;;;;;;;21.10;5.22;;;8.80;99.90;;;;;;5073643;28;20040;-81
2022/01/06 11:03:09;;;;;;;31.35;6.07;;;8.20;99.90;;;;;;5073402;28;20032;-77
2022/01/06 11:05:36;;;;;;;29.02;5.72;;;8.00;99.90;;;;;;5073496;28;20111;-80
2022/01/06 11:08:04;;;;;;;22.33;4.93;;;7.80;99.90;;;;;;5073202;28;20112;-80
2022/01/06 11:10:30;;;;;;;24.85;5.07;;;7.70;99.90;;;;;;5071892;28;20099;-78
2022/01/06 11:12:57;;;;;;;21.17;4.25;;;7.80;99.90;;;;;;5073429;28;20013;-80
2022/01/06 11:15:22;;;;;;;20.02;4.80;;;8.00;99.90;;;;;;5073407;28;20039;-81
2022/01/06 11:17:48;;;;;;;20.83;5.10;;;8.00;99.90;;;;;;5073311;28;20485;-79
2022/01/06 11:20:25;;;;;;;25.58;6.07;;;8.30;99.90;;;;;;5073053;28;20389;-81
2022/01/06 11:22:53;;;;;;;22.75;5.60;;;8.70;99.90;;;;;;5073266;28;20032;-81
2022/01/06 11:25:37;;;;;;;23.83;6.97;;;9.40;99.90;;;;;;5072647;28;20048;-79
2022/01/06 11:28:08;;;;;;;21.42;5.57;;;9.50;99.90;;;;;;5073197;28;20025;-79
2022/01/06 11:30:45;;;;;;;27.83;4.93;;;9.90;99.90;;;;;;5073184;28;20115;-79
2022/01/06 11:33:12;;;;;;;21.90;5.38;;;9.90;99.90;;;;;;5072877;28;20028;-76
2022/01/06 11:35:52;;;;;;;18.25;4.78;;;10.00;99.90;;;;;;5073047;28;20059;-78
2022/01/06 11:38:20;;;;;;;23.50;5.20;;;9.80;99.90;;;;;;5072748;28;20032;-78
2022/01/06 11:40:48;;;;;;;21.13;4.68;;;10.20;99.90;;;;;;5073063;28;20025;-78
2022/01/06 11:43:14;;;;;;;23.40;5.45;;;9.90;99.90;;;;;;5072749;28;20037;-80
2022/01/06 11:45:40;;;;;;;19.27;5.68;;;9.60;99.90;;;;;;5072921;28;20051;-79
2022/01/06 11:48:08;;;;;;;24.25;6.25;;;9.50;99.90;;;;;;5071479;28;20036;-78
2022/01/06 11:50:42;;;;;;;28.63;6.05;;;9.50;99.90;;;;;;5072919;28;20028;-78
2022/01/06 11:53:09;;;;;;;25.70;5.57;;;9.70;99.90;;;;;;5071288;28;20035;-79
2022/01/06 11:55:37;;;;;;;23.13;5.35;;;9.90;99.90;;;;;;5072884;28;20024;-77
2022/01/06 11:58:12;;;;;;;23.23;5.35;;;9.80;99.90;;;;;;5072577;28;20430;-78
2022/01/06 12:00:42;;;;;;;25.55;5.22;;;9.80;99.90;;;;;;5071522;28;20040;-79
2022/01/06 12:03:13;;;;;;;20.05;6.20;;;9.70;99.90;;;;;;5072686;28;20036;-77
2022/01/06 12:05:48;;;;;;;28.70;5.55;;;10.20;99.90;;;;;;5073181;28;20036;-77
2022/01/06 12:08:21;;;;;;;27.08;5.30;;;11.20;99.90;;;;;;5072168;28;20020;-78
2022/01/06 12:10:49;;;;;;;18.67;5.68;;;10.70;99.90;;;;;;5072435;28;20044;-77
2022/01/06 12:13:16;;;;;;;24.33;5.55;;;9.90;99.90;;;;;;5072586;28;20054;-76
2022/01/06 12:16:01;;;;;;;23.23;5.70;;;10.70;99.90;;;;;;5072630;28;20042;-79
2022/01/06 12:18:29;;;;;;;24.52;5.13;;;10.50;99.90;;;;;;5072437;28;20471;-77
2022/01/06 12:20:57;;;;;;;23.02;5.80;;;10.20;99.90;;;;;;5072575;28;20038;-77
2022/01/06 12:23:24;;;;;;;19.00;4.93;;;9.80;99.90;;;;;;5072110;28;20118;-79
2022/01/06 12:25:56;;;;;;;24.92;5.85;;;9.70;99.90;;;;;;5072472;28;20514;-77
2022/01/06 12:28:22;;;;;;;22.38;5.07;;;10.00;99.90;;;;;;5071001;28;20017;-77
2022/01/06 12:30:48;;;;;;;23.83;6.20;;;10.40;99.90;;;;;;5071094;28;20564;-76
2022/01/06 12:33:18;;;;;;;24.23;5.70;;;10.10;99.90;;;;;;5071082;28;20027;-77
2022/01/06 12:35:51;;;;;;;24.70;5.63;;;10.70;99.90;;;;;;5072548;28;20055;-77
2022/01/06 12:38:26;;;;;;;27.27;5.55;;;10.90;99.90;;;;;;5072139;28;20116;-78
2022/01/06 12:40:53;;;;;;;21.35;5.75;;;10.30;99.90;;;;;;5072644;28;20107;-79
2022/01/06 12:43:20;;;;;;;22.55;5.47;;;9.80;99.90;;;;;;5071082;28;20017;-78
2022/01/06 12:46:00;;;;;;;14.70;4.95;;;9.50;99.90;;;;;;5072602;28;20036;-79
2022/01/06 12:48:35;;;;;;;23.23;5.63;;;9.90;99.90;;;;;;5072210;28;20047;-79
2022/01/06 12:51:01;;;;;;;20.48;5.10;;;9.50;99.90;;;;;;5071887;28;20035;-78
2022/01/06 12:53:33;;;;;;;26.67;6.63;;;9.10;99.90;;;;;;5072187;28;20113;-79
2022/01/06 12:55:59;;;;;;;21.35;5.43;;;9.40;99.90;;;;;;5072373;28;20241;-80